createdAt,value
2023-05-10T00:01:45.086Z,1.50
2023-05-10T00:04:11.818Z,1.40
2023-05-10T00:06:38.499Z,1.55
2023-05-10T00:09:05.448Z,1.83
2023-05-10T00:11:32.281Z,1.55
2023-05-10T00:13:59.130Z,1.30
2023-05-10T00:16:26.035Z,1.70
2023-05-10T00:18:52.861Z,1.45
2023-05-10T00:21:19.659Z,1.60
2023-05-10T00:23:46.351Z,1.40
2023-05-10T00:26:13.208Z,1.40
2023-05-10T00:28:43.860Z,1.60
2023-05-10T00:31:11.008Z,1.73
2023-05-10T00:33:37.670Z,1.40
2023-05-10T00:36:04.593Z,1.70
2023-05-10T00:38:31.234Z,1.48
2023-05-10T00:40:57.892Z,1.45
2023-05-10T00:43:29.750Z,1.27
2023-05-10T00:45:56.682Z,1.50
2023-05-10T00:48:23.548Z,1.48
2023-05-10T00:50:50.527Z,1.40
2023-05-10T00:53:17.896Z,1.45
2023-05-10T00:55:44.775Z,1.42
2023-05-10T00:58:11.631Z,1.30
2023-05-10T01:00:39.525Z,1.30
2023-05-10T01:03:06.661Z,1.50
2023-05-10T01:05:33.524Z,1.42
2023-05-10T01:08:00.365Z,1.30
2023-05-10T01:10:27.058Z,1.48
2023-05-10T01:12:54.018Z,1.58
2023-05-10T01:15:21.692Z,1.30
2023-05-10T01:17:49.533Z,1.42
2023-05-10T01:20:16.953Z,1.30
2023-05-10T01:23:16.126Z,1.42
2023-05-10T01:26:21.722Z,1.45
2023-05-10T01:29:20.441Z,1.30
2023-05-10T01:32:09.050Z,1.40
2023-05-10T01:34:37.656Z,1.33
2023-05-10T01:37:10.587Z,1.45
2023-05-10T01:42:28.470Z,1.40
2023-05-10T01:45:06.823Z,1.30
2023-05-10T01:47:52.128Z,1.70
2023-05-10T01:50:26.340Z,1.50
2023-05-10T01:52:57.815Z,1.52
2023-05-10T01:55:28.214Z,1.70
2023-05-10T01:58:03.824Z,1.60
2023-05-10T02:00:34.577Z,1.45
2023-05-10T02:03:07.952Z,1.65
2023-05-10T02:05:35.369Z,1.40
2023-05-10T02:08:02.786Z,1.67
2023-05-10T02:10:30.110Z,1.80
2023-05-10T02:12:59.912Z,1.63
2023-05-10T02:15:27.718Z,1.90
2023-05-10T02:17:56.588Z,1.83
2023-05-10T02:20:24.485Z,1.80
2023-05-10T02:22:52.709Z,2.05
2023-05-10T02:25:20.943Z,2.53
2023-05-10T02:27:49.121Z,2.22
2023-05-10T02:30:16.241Z,2.00
2023-05-10T02:32:43.949Z,2.55
2023-05-10T02:35:11.035Z,2.30
2023-05-10T02:37:41.030Z,2.58
2023-05-10T02:40:08.457Z,2.47
2023-05-10T02:42:37.434Z,2.10
2023-05-10T02:45:09.286Z,2.60
2023-05-10T02:47:36.420Z,2.42
2023-05-10T02:50:03.451Z,3.05
2023-05-10T02:52:41.192Z,2.22
2023-05-10T02:55:08.715Z,2.47
2023-05-10T02:57:36.582Z,2.30
2023-05-10T03:00:04.351Z,2.47
2023-05-10T03:02:31.971Z,2.30
2023-05-10T03:04:59.513Z,2.40
2023-05-10T03:07:26.954Z,2.90
2023-05-10T03:09:53.886Z,2.55
2023-05-10T03:12:20.718Z,2.65
2023-05-10T03:14:57.857Z,3.05
2023-05-10T03:17:42.648Z,3.65
2023-05-10T03:20:15.869Z,3.80
2023-05-10T03:22:47.114Z,3.95
2023-05-10T03:25:16.723Z,3.03
2023-05-10T03:27:44.937Z,3.40
2023-05-10T03:30:13.104Z,4.15
2023-05-10T03:32:39.892Z,4.35
2023-05-10T03:35:11.224Z,4.10
2023-05-10T03:37:38.203Z,4.30
2023-05-10T03:40:07.989Z,4.25
2023-05-10T03:42:37.093Z,3.97
2023-05-10T03:45:04.133Z,4.38
2023-05-10T03:47:31.071Z,4.25
2023-05-10T03:49:58.954Z,4.60
2023-05-10T03:52:26.532Z,4.30
2023-05-10T03:54:53.502Z,4.70
2023-05-10T03:57:20.336Z,5.18
2023-05-10T03:59:47.117Z,4.53
2023-05-10T04:02:14.030Z,4.63
2023-05-10T04:04:41.032Z,4.30
2023-05-10T04:07:07.890Z,4.47
2023-05-10T04:09:34.980Z,4.78
2023-05-10T04:12:03.274Z,5.05
2023-05-10T04:14:30.174Z,4.18
2023-05-10T04:16:57.003Z,5.43
2023-05-10T04:19:24.238Z,4.88
2023-05-10T04:21:51.030Z,5.82
2023-05-10T04:24:17.754Z,6.00
2023-05-10T04:26:44.577Z,4.57
2023-05-10T04:29:11.231Z,5.32
2023-05-10T04:31:38.161Z,5.78
2023-05-10T04:34:04.937Z,5.70
2023-05-10T04:36:33.366Z,5.43
2023-05-10T04:39:00.085Z,5.20
2023-05-10T04:41:26.851Z,5.05
2023-05-10T04:43:53.567Z,5.00
2023-05-10T04:46:20.359Z,4.75
2023-05-10T04:48:47.049Z,5.30
2023-05-10T04:51:14.051Z,4.30
2023-05-10T04:53:41.873Z,4.95
2023-05-10T04:56:09.817Z,4.82
2023-05-10T04:58:36.549Z,4.82
2023-05-10T05:01:10.334Z,5.43
2023-05-10T05:03:37.777Z,4.47
2023-05-10T05:06:04.640Z,5.30
2023-05-10T05:08:31.472Z,4.78
2023-05-10T05:10:58.301Z,4.75
2023-05-10T05:13:24.975Z,5.03
2023-05-10T05:15:51.806Z,5.22
2023-05-10T05:18:18.622Z,5.97
2023-05-10T05:20:45.451Z,5.00
2023-05-10T05:23:12.150Z,5.43
2023-05-10T05:25:38.863Z,5.78
2023-05-10T05:28:05.564Z,5.78
2023-05-10T05:30:32.551Z,5.53
2023-05-10T05:32:59.330Z,5.68
2023-05-10T05:35:26.021Z,6.70
2023-05-10T05:37:52.736Z,6.25
2023-05-10T05:40:19.401Z,6.78
2023-05-10T05:42:46.073Z,6.55
2023-05-10T05:45:14.383Z,5.95
2023-05-10T05:47:41.464Z,6.53
2023-05-10T05:50:08.392Z,6.30
2023-05-10T05:52:35.217Z,5.78
2023-05-10T05:55:02.097Z,6.47
2023-05-10T05:57:29.002Z,5.43
2023-05-10T05:59:55.673Z,5.20
2023-05-10T06:02:22.516Z,5.50
2023-05-10T06:04:49.246Z,6.22
2023-05-10T06:07:15.903Z,5.43
2023-05-10T06:09:42.634Z,5.70
2023-05-10T06:12:09.428Z,5.80
2023-05-10T06:14:36.184Z,6.05
2023-05-10T06:17:05.073Z,5.78
2023-05-10T06:19:31.801Z,5.55
2023-05-10T06:21:58.528Z,5.68
2023-05-10T06:24:25.248Z,5.68
2023-05-10T06:26:51.953Z,5.40
2023-05-10T06:29:18.628Z,6.07
2023-05-10T06:31:45.403Z,5.78
2023-05-10T06:34:12.872Z,6.32
2023-05-10T06:36:39.666Z,5.50
2023-05-10T06:39:06.645Z,6.00
2023-05-10T06:41:33.291Z,6.32
2023-05-10T06:43:59.989Z,6.47
2023-05-10T06:46:26.786Z,5.95
2023-05-10T06:48:53.640Z,6.78
2023-05-10T06:51:22.098Z,6.63
2023-05-10T06:53:48.807Z,6.78
2023-05-10T06:56:15.710Z,6.65
2023-05-10T06:58:42.445Z,6.50
2023-05-10T07:01:09.397Z,5.60
2023-05-10T07:03:36.464Z,5.25
2023-05-10T07:06:11.353Z,4.25
2023-05-10T07:08:42.642Z,4.57
2023-05-10T07:11:09.405Z,4.90
2023-05-10T07:13:37.175Z,5.03
2023-05-10T07:16:04.050Z,4.50
2023-05-10T07:18:30.946Z,5.15
2023-05-10T07:20:57.961Z,4.85
2023-05-10T07:23:24.726Z,4.70
2023-05-10T07:25:55.593Z,5.20
2023-05-10T07:28:22.887Z,5.45
2023-05-10T07:30:49.731Z,5.32
2023-05-10T07:33:16.972Z,6.10
2023-05-10T07:35:44.200Z,5.18
2023-05-10T07:38:12.101Z,5.32
2023-05-10T07:40:40.821Z,5.30
2023-05-10T07:43:07.545Z,6.25
2023-05-10T07:45:34.570Z,5.53
2023-05-10T07:48:01.420Z,5.20
2023-05-10T07:50:28.346Z,5.68
2023-05-10T07:52:55.099Z,6.28
2023-05-10T07:55:22.339Z,5.80
2023-05-10T07:57:49.057Z,5.43
2023-05-10T08:00:19.382Z,5.28
2023-05-10T08:02:46.227Z,4.95
2023-05-10T08:05:13.135Z,5.47
2023-05-10T08:07:40.004Z,5.97
2023-05-10T08:10:07.496Z,5.50
2023-05-10T08:12:34.146Z,5.20
2023-05-10T08:15:01.009Z,6.43
2023-05-10T08:17:27.766Z,5.18
2023-05-10T08:19:54.477Z,4.63
2023-05-10T08:22:21.137Z,4.68
2023-05-10T08:24:47.816Z,3.97
2023-05-10T08:27:14.452Z,4.63
2023-05-10T08:29:49.430Z,4.57
2023-05-10T08:32:16.996Z,3.88
2023-05-10T08:34:43.869Z,3.78
2023-05-10T08:37:14.004Z,4.38
2023-05-10T08:39:41.084Z,4.32
2023-05-10T08:42:09.286Z,3.88
2023-05-10T08:44:37.476Z,3.78
2023-05-10T08:47:06.743Z,4.00
2023-05-10T08:49:34.403Z,3.80
2023-05-10T08:52:05.155Z,3.63
2023-05-10T08:54:35.251Z,3.53
2023-05-10T08:57:02.207Z,3.20
2023-05-10T08:59:29.573Z,3.80
2023-05-10T09:01:58.701Z,3.17
2023-05-10T09:04:25.517Z,3.15
2023-05-10T09:06:52.599Z,3.53
2023-05-10T09:09:20.499Z,3.72
2023-05-10T09:11:47.156Z,3.08
2023-05-10T09:14:13.985Z,3.13
2023-05-10T09:16:41.150Z,3.50
2023-05-10T09:19:09.412Z,2.80
2023-05-10T09:21:39.057Z,2.80
2023-05-10T09:24:07.646Z,2.83
2023-05-10T09:26:36.285Z,3.38
2023-05-10T09:29:03.946Z,3.05
2023-05-10T09:31:55.185Z,2.80
2023-05-10T09:34:30.107Z,2.90
2023-05-10T09:37:02.287Z,3.13
2023-05-10T09:39:35.821Z,2.92
2023-05-10T09:42:07.279Z,3.17
2023-05-10T09:44:34.767Z,3.05
2023-05-10T09:47:02.752Z,2.60
2023-05-10T09:49:29.855Z,2.45
2023-05-10T09:52:07.497Z,2.95
2023-05-10T09:54:35.253Z,2.80
2023-05-10T09:57:02.440Z,2.53
2023-05-10T09:59:29.826Z,2.13
2023-05-10T10:01:58.116Z,2.65
2023-05-10T10:04:24.945Z,2.28
2023-05-10T10:07:02.483Z,2.53
2023-05-10T10:09:29.546Z,2.13
2023-05-10T10:11:57.527Z,2.47
2023-05-10T10:14:27.310Z,2.45
2023-05-10T10:17:06.627Z,2.38
2023-05-10T10:19:36.757Z,2.40
2023-05-10T10:22:03.905Z,2.40
2023-05-10T10:24:30.707Z,2.90
2023-05-10T10:27:05.344Z,2.47
2023-05-10T10:29:51.096Z,2.53
2023-05-10T10:32:26.611Z,2.50
2023-05-10T10:34:55.305Z,2.25
2023-05-10T10:37:22.116Z,2.58
2023-05-10T10:39:51.718Z,2.30
2023-05-10T10:42:48.262Z,2.42
2023-05-10T10:45:15.162Z,2.40
2023-05-10T10:47:44.198Z,2.65
2023-05-10T10:50:14.064Z,2.42
2023-05-10T10:52:41.811Z,2.22
2023-05-10T10:55:19.995Z,2.30
2023-05-10T10:57:52.623Z,2.30
2023-05-10T11:00:33.187Z,2.90
2023-05-10T11:03:15.374Z,2.50
2023-05-10T11:05:46.868Z,2.20
2023-05-10T11:08:36.887Z,1.85
2023-05-10T11:11:09.777Z,2.60
2023-05-10T11:13:40.376Z,2.53
2023-05-10T11:16:27.705Z,2.40
2023-05-10T11:19:09.235Z,2.00
2023-05-10T11:21:49.174Z,2.20
2023-05-10T11:24:20.888Z,2.08
2023-05-10T11:26:51.064Z,2.20
2023-05-10T11:29:17.855Z,2.30
2023-05-10T11:31:46.236Z,1.90
2023-05-10T11:34:15.641Z,1.90
2023-05-10T11:36:42.459Z,2.45
2023-05-10T11:39:09.202Z,2.65
2023-05-10T11:41:36.434Z,2.13
2023-05-10T11:44:03.174Z,3.78
2023-05-10T11:46:29.942Z,2.58
2023-05-10T11:49:05.523Z,2.55
2023-05-10T11:51:35.089Z,2.20
2023-05-10T11:54:02.011Z,1.95
2023-05-10T11:56:28.669Z,2.15
2023-05-10T11:58:57.609Z,2.20
2023-05-10T12:01:25.759Z,1.92
2023-05-10T12:03:53.832Z,2.38
2023-05-10T12:06:21.666Z,2.20
2023-05-10T12:08:49.196Z,1.75
2023-05-10T12:11:16.563Z,2.10
2023-05-10T12:13:47.467Z,2.15
2023-05-10T12:16:22.008Z,2.50
2023-05-10T12:18:52.841Z,2.08
2023-05-10T12:21:21.018Z,2.25
2023-05-10T12:23:49.700Z,2.92
2023-05-10T12:26:16.460Z,2.55
2023-05-10T12:28:43.259Z,2.72
2023-05-10T12:31:09.945Z,2.42
2023-05-10T12:33:43.376Z,2.67
2023-05-10T12:36:11.050Z,2.45
2023-05-10T12:38:40.040Z,2.42
2023-05-10T12:41:17.693Z,2.40
2023-05-10T12:43:46.284Z,2.80
2023-05-10T12:46:15.269Z,2.38
2023-05-10T12:48:43.447Z,3.25
2023-05-10T12:51:10.606Z,2.92
2023-05-10T12:53:37.697Z,3.45
2023-05-10T12:56:04.658Z,2.63
2023-05-10T12:58:36.094Z,1.60
2023-05-10T13:01:03.809Z,1.88
2023-05-10T13:03:30.619Z,2.22
2023-05-10T13:05:57.369Z,1.55
2023-05-10T13:08:24.106Z,1.58
2023-05-10T13:10:51.129Z,1.42
2023-05-10T13:13:18.712Z,1.50
2023-05-10T13:15:45.376Z,1.63
2023-05-10T13:18:12.142Z,1.80
2023-05-10T13:20:38.962Z,1.77
2023-05-10T13:23:05.730Z,1.90
2023-05-10T13:25:32.636Z,1.88
2023-05-10T13:27:59.275Z,1.95
2023-05-10T13:30:26.101Z,2.28
2023-05-10T13:32:52.837Z,2.47
2023-05-10T13:35:19.672Z,2.60
2023-05-10T13:37:46.455Z,2.70
2023-05-10T13:40:13.243Z,2.10
2023-05-10T13:42:40.567Z,2.47
2023-05-10T13:45:07.651Z,2.55
2023-05-10T13:47:34.393Z,2.60
2023-05-10T13:50:02.033Z,2.92
2023-05-10T13:52:29.485Z,2.38
2023-05-10T13:54:56.291Z,2.65
2023-05-10T13:57:23.957Z,3.05
2023-05-10T13:59:50.963Z,2.53
2023-05-10T14:02:17.653Z,2.65
2023-05-10T14:04:44.381Z,2.28
2023-05-10T14:07:11.074Z,2.42
2023-05-10T14:09:37.796Z,2.25
2023-05-10T14:12:04.636Z,2.30
2023-05-10T14:14:31.480Z,2.80
2023-05-10T14:16:58.199Z,2.42
2023-05-10T14:19:24.887Z,2.40
2023-05-10T14:21:52.948Z,2.63
2023-05-10T14:24:19.613Z,2.30
2023-05-10T14:26:46.403Z,2.35
2023-05-10T14:29:13.053Z,2.05
2023-05-10T14:31:39.768Z,2.42
2023-05-10T14:34:06.642Z,2.60
2023-05-10T14:36:33.637Z,2.30
2023-05-10T14:39:00.377Z,2.95
2023-05-10T14:41:27.037Z,2.63
2023-05-10T14:43:53.946Z,2.63
2023-05-10T14:46:20.804Z,2.40
2023-05-10T14:48:47.600Z,2.30
2023-05-10T14:51:14.489Z,2.17
2023-05-10T14:53:41.185Z,2.33
2023-05-10T14:56:07.976Z,2.75
2023-05-10T14:58:34.877Z,2.72
2023-05-10T15:01:01.913Z,2.40
2023-05-10T15:03:29.496Z,2.20
2023-05-10T15:05:58.615Z,2.15
2023-05-10T15:08:28.776Z,2.17
2023-05-10T15:10:56.900Z,2.25
2023-05-10T15:13:23.625Z,2.42
2023-05-10T15:15:50.361Z,2.85
2023-05-10T15:18:18.013Z,2.72
2023-05-10T15:20:44.826Z,1.90
2023-05-10T15:23:11.552Z,1.98
2023-05-10T15:25:38.422Z,1.90
2023-05-10T15:28:05.521Z,1.90
2023-05-10T15:30:32.229Z,2.17
2023-05-10T15:32:59.083Z,2.53
2023-05-10T15:35:27.278Z,2.00
2023-05-10T15:37:54.000Z,2.95
2023-05-10T15:40:20.746Z,2.17
2023-05-10T15:42:47.465Z,1.80
2023-05-10T15:48:36.968Z,2.08
2023-05-10T15:51:03.945Z,2.03
2023-05-10T15:53:30.699Z,1.80
2023-05-10T15:56:00.581Z,1.75
2023-05-10T15:58:38.699Z,1.60
2023-05-10T16:01:08.550Z,1.73
2023-05-10T16:03:37.374Z,1.83
2023-05-10T16:06:04.673Z,1.80
2023-05-10T16:08:33.589Z,1.85
2023-05-10T16:11:00.639Z,1.80
2023-05-10T16:13:27.611Z,2.00
2023-05-10T16:15:54.419Z,1.50
2023-05-10T16:18:21.443Z,1.85
2023-05-10T16:20:48.483Z,1.65
2023-05-10T16:23:15.276Z,1.75
2023-05-10T16:25:42.208Z,1.77
2023-05-10T16:28:08.903Z,1.50
2023-05-10T16:30:35.996Z,1.20
2023-05-10T16:33:02.844Z,1.40
2023-05-10T16:35:30.003Z,2.15
2023-05-10T16:37:57.097Z,1.40
2023-05-10T16:40:24.204Z,1.60
2023-05-10T16:42:50.874Z,1.33
2023-05-10T16:45:18.037Z,1.55
2023-05-10T16:47:45.226Z,1.23
2023-05-10T16:50:12.408Z,2.00
2023-05-10T16:52:39.399Z,1.70
2023-05-10T16:55:06.521Z,1.40
2023-05-10T16:57:33.309Z,1.50
2023-05-10T17:00:00.136Z,1.55
2023-05-10T17:02:27.171Z,1.80
2023-05-10T17:04:56.014Z,1.70
2023-05-10T17:07:25.395Z,1.35
2023-05-10T17:09:52.944Z,2.58
2023-05-10T17:12:22.123Z,2.58
2023-05-10T17:14:48.992Z,1.90
2023-05-10T17:17:15.754Z,1.85
2023-05-10T17:19:45.420Z,1.60
2023-05-10T17:22:14.962Z,1.42
2023-05-10T17:24:41.767Z,1.52
2023-05-10T17:27:08.644Z,2.05
2023-05-10T17:29:35.311Z,1.70
2023-05-10T17:32:02.341Z,1.60
2023-05-10T17:34:29.192Z,1.70
2023-05-10T17:36:55.878Z,2.03
2023-05-10T17:39:22.582Z,1.95
2023-05-10T17:41:49.313Z,2.00
2023-05-10T17:44:15.994Z,1.88
2023-05-10T17:46:43.370Z,1.90
2023-05-10T17:49:10.323Z,1.55
2023-05-10T17:51:37.100Z,1.95
2023-05-10T17:54:38.319Z,1.83
2023-05-10T17:57:09.875Z,2.00
2023-05-10T17:59:49.410Z,1.98
2023-05-10T18:02:16.721Z,2.10
2023-05-10T18:04:50.965Z,2.20
2023-05-10T18:07:23.949Z,2.10
2023-05-10T18:10:24.232Z,2.20
2023-05-10T18:13:02.605Z,2.22
2023-05-10T18:15:31.503Z,1.88
2023-05-10T18:18:04.328Z,2.17
2023-05-10T18:20:37.130Z,2.40
2023-05-10T18:23:06.397Z,1.90
2023-05-10T18:25:33.169Z,2.58
2023-05-10T18:28:00.049Z,2.42
2023-05-10T18:30:27.040Z,2.22
2023-05-10T18:32:53.967Z,2.33
2023-05-10T18:35:21.489Z,2.10
2023-05-10T18:37:49.036Z,2.38
2023-05-10T18:40:17.544Z,2.65
2023-05-10T18:42:46.479Z,2.88
2023-05-10T18:45:13.597Z,3.25
2023-05-10T18:47:40.616Z,3.05
2023-05-10T18:50:08.015Z,2.40
2023-05-10T18:52:35.942Z,2.08
2023-05-10T18:55:03.507Z,1.80
2023-05-10T18:57:30.322Z,2.38
2023-05-10T18:59:57.022Z,2.35
2023-05-10T19:02:25.360Z,2.28
2023-05-10T19:04:52.266Z,1.90
2023-05-10T19:07:19.240Z,1.85
2023-05-10T19:09:46.114Z,1.70
2023-05-10T19:12:12.941Z,1.85
2023-05-10T19:14:39.812Z,1.73
2023-05-10T19:17:06.872Z,2.28
2023-05-10T19:19:33.768Z,1.80
2023-05-10T19:22:00.729Z,2.25
2023-05-10T19:24:27.842Z,1.85
2023-05-10T19:26:56.305Z,1.77
2023-05-10T19:29:23.232Z,1.50
2023-05-10T19:31:50.138Z,1.65
2023-05-10T19:34:17.149Z,1.75
2023-05-10T19:36:44.045Z,1.65
2023-05-10T19:39:11.523Z,1.90
2023-05-10T19:41:38.492Z,1.70
2023-05-10T19:44:05.376Z,1.58
2023-05-10T19:46:32.410Z,1.50
2023-05-10T19:48:59.206Z,1.65
2023-05-10T19:51:26.033Z,1.40
2023-05-10T19:53:52.881Z,1.23
2023-05-10T19:56:19.750Z,1.20
2023-05-10T19:58:46.689Z,1.60
2023-05-10T20:01:13.859Z,1.60
2023-05-10T20:03:40.848Z,1.45
2023-05-10T20:06:07.763Z,1.38
2023-05-10T20:08:34.552Z,1.60
2023-05-10T20:11:03.818Z,1.35
2023-05-10T20:13:30.811Z,1.23
2023-05-10T20:15:58.609Z,1.70
2023-05-10T20:18:28.315Z,1.92
2023-05-10T20:20:57.621Z,1.30
2023-05-10T20:23:24.409Z,1.20
2023-05-10T20:25:51.310Z,1.40
2023-05-10T20:28:22.975Z,1.30
2023-05-10T20:30:54.160Z,1.30
2023-05-10T20:33:21.872Z,1.23
2023-05-10T20:35:50.318Z,2.25
2023-05-10T20:38:18.223Z,1.60
2023-05-10T20:40:45.617Z,1.20
2023-05-10T20:43:12.729Z,1.40
2023-05-10T20:45:39.568Z,1.50
2023-05-10T20:48:06.560Z,1.80
2023-05-10T20:50:33.457Z,1.48
2023-05-10T20:53:01.073Z,1.75
2023-05-10T20:55:28.522Z,1.30
2023-05-10T20:57:55.491Z,1.23
2023-05-10T21:00:22.455Z,1.50
2023-05-10T21:02:49.408Z,2.13
2023-05-10T21:05:17.612Z,1.42
2023-05-10T21:07:44.430Z,1.40
2023-05-10T21:10:11.639Z,1.45
2023-05-10T21:12:38.462Z,2.25
2023-05-10T21:15:05.789Z,1.58
2023-05-10T21:17:32.864Z,1.17
2023-05-10T21:19:59.748Z,1.50
2023-05-10T21:22:26.905Z,1.33
2023-05-10T21:24:53.717Z,1.50
2023-05-10T21:27:20.637Z,1.20
2023-05-10T21:29:47.365Z,1.48
2023-05-10T21:32:15.055Z,1.13
2023-05-10T21:34:42.103Z,1.10
2023-05-10T21:37:09.126Z,1.70
2023-05-10T21:39:36.260Z,2.33
2023-05-10T21:42:03.763Z,1.67
2023-05-10T21:44:31.654Z,1.80
2023-05-10T21:46:58.677Z,2.00
2023-05-10T21:49:25.816Z,1.42
2023-05-10T21:51:52.604Z,1.40
2023-05-10T21:54:19.395Z,1.20
2023-05-10T21:56:46.429Z,1.30
2023-05-10T21:59:13.432Z,1.67
2023-05-10T22:01:40.385Z,1.70
2023-05-10T22:04:07.263Z,2.03
2023-05-10T22:06:34.206Z,1.52
2023-05-10T22:09:01.059Z,1.23
2023-05-10T22:11:27.998Z,1.40
2023-05-10T22:13:54.888Z,1.48
2023-05-10T22:16:21.852Z,1.45
2023-05-10T22:18:48.804Z,1.13
2023-05-10T22:21:15.620Z,1.30
2023-05-10T22:23:42.503Z,2.30
2023-05-10T22:26:09.640Z,1.27
2023-05-10T22:28:36.585Z,1.58
2023-05-10T22:31:03.672Z,1.40
2023-05-10T22:33:30.481Z,1.30
2023-05-10T22:35:57.267Z,1.50
2023-05-10T22:38:24.131Z,1.40
2023-05-10T22:40:50.917Z,1.30
2023-05-10T22:43:18.243Z,1.60
2023-05-10T22:45:45.181Z,1.60
2023-05-10T22:48:12.058Z,1.73
2023-05-10T22:50:39.021Z,1.80
2023-05-10T22:53:06.678Z,1.40
2023-05-10T22:55:33.581Z,1.48
2023-05-10T22:58:01.135Z,1.48
2023-05-10T23:00:27.994Z,1.75
2023-05-10T23:02:54.936Z,1.25
2023-05-10T23:05:21.863Z,1.25
2023-05-10T23:07:53.102Z,1.42
2023-05-10T23:10:20.465Z,1.40
2023-05-10T23:12:48.092Z,1.30
2023-05-10T23:15:14.989Z,1.55
2023-05-10T23:17:41.881Z,1.70
2023-05-10T23:20:09.215Z,1.67
2023-05-10T23:22:36.241Z,1.70
2023-05-10T23:25:03.064Z,1.50
2023-05-10T23:27:30.634Z,1.60
2023-05-10T23:29:58.591Z,2.30
2023-05-10T23:32:25.426Z,1.75
2023-05-10T23:34:52.250Z,1.83
2023-05-10T23:37:19.077Z,2.17
2023-05-10T23:39:45.854Z,1.90
2023-05-10T23:42:12.715Z,1.90
2023-05-10T23:44:39.585Z,1.90
2023-05-10T23:47:07.227Z,1.85
2023-05-10T23:49:34.236Z,1.60
2023-05-10T23:52:01.296Z,2.00
2023-05-10T23:54:28.694Z,1.98
2023-05-10T23:56:55.453Z,1.60
2023-05-10T23:59:22.329Z,2.10
